createdAt,value
2022-11-17T00:00:45.211Z,6.35
2022-11-17T00:03:15.837Z,6.35
2022-11-17T00:05:44.777Z,6.36
2022-11-17T00:08:13.044Z,6.37
2022-11-17T00:10:41.143Z,6.37
2022-11-17T00:13:29.106Z,6.39
2022-11-17T00:15:57.116Z,6.41
2022-11-17T00:18:43.807Z,6.42
2022-11-17T00:21:19.322Z,6.43
2022-11-17T00:23:48.280Z,6.46
2022-11-17T00:26:31.793Z,6.49
2022-11-17T00:29:02.990Z,6.51
2022-11-17T00:31:52.374Z,6.53
2022-11-17T00:34:23.172Z,6.56
2022-11-17T00:36:53.816Z,6.57
2022-11-17T00:39:23.088Z,6.59
2022-11-17T00:41:51.201Z,6.65
2022-11-17T00:44:19.141Z,6.68
2022-11-17T00:46:47.390Z,6.69
2022-11-17T00:49:15.443Z,6.70
2022-11-17T00:51:43.482Z,6.71
2022-11-17T00:54:13.174Z,6.73
2022-11-17T00:56:41.240Z,6.74
2022-11-17T00:59:09.630Z,6.73
2022-11-17T01:01:38.152Z,6.73
2022-11-17T01:04:07.327Z,6.75
2022-11-17T01:06:38.723Z,6.77
2022-11-17T01:09:23.810Z,6.78
2022-11-17T01:11:53.566Z,6.78
2022-11-17T01:14:25.557Z,6.77
2022-11-17T01:16:54.827Z,6.77
2022-11-17T01:19:24.081Z,6.78
2022-11-17T01:21:52.455Z,6.78
2022-11-17T01:24:20.436Z,6.75
2022-11-17T01:26:50.768Z,6.73
2022-11-17T01:29:18.886Z,6.74
2022-11-17T01:31:50.904Z,6.74
2022-11-17T01:34:19.727Z,6.73
2022-11-17T01:37:06.525Z,6.72
2022-11-17T01:39:34.670Z,6.70
2022-11-17T01:42:05.099Z,6.70
2022-11-17T01:44:36.325Z,6.69
2022-11-17T01:47:06.361Z,6.69
2022-11-17T01:49:34.423Z,6.69
2022-11-17T01:52:07.562Z,6.69
2022-11-17T01:54:40.857Z,6.72
2022-11-17T01:57:24.091Z,6.71
2022-11-17T02:00:07.763Z,6.68
2022-11-17T02:02:38.727Z,6.71
2022-11-17T02:05:22.434Z,6.73
2022-11-17T02:07:55.457Z,6.74
2022-11-17T02:10:23.760Z,6.71
2022-11-17T02:12:54.927Z,6.69
2022-11-17T02:15:24.445Z,6.67
2022-11-17T02:17:53.133Z,6.64
2022-11-17T02:20:29.668Z,6.64
2022-11-17T02:23:16.269Z,6.67
2022-11-17T02:26:25.874Z,6.67
2022-11-17T02:29:09.886Z,6.68
2022-11-17T02:31:53.095Z,6.70
2022-11-17T02:34:50.480Z,6.70
2022-11-17T02:37:46.241Z,6.71
2022-11-17T02:40:23.707Z,6.73
2022-11-17T02:43:17.895Z,6.76
2022-11-17T02:45:56.579Z,6.77
2022-11-17T02:48:48.526Z,6.78
2022-11-17T02:51:21.526Z,6.78
2022-11-17T02:53:56.450Z,6.79
2022-11-17T02:56:25.049Z,6.81
2022-11-17T02:59:00.372Z,6.81
2022-11-17T03:01:53.499Z,6.84
2022-11-17T03:04:54.522Z,6.87
2022-11-17T03:07:35.189Z,6.90
2022-11-17T03:10:15.261Z,6.94
2022-11-17T03:12:50.710Z,6.97
2022-11-17T03:15:18.558Z,7.00
2022-11-17T03:18:12.342Z,7.00
2022-11-17T03:21:06.387Z,6.97
2022-11-17T03:23:35.088Z,6.94
2022-11-17T03:26:07.881Z,6.91
2022-11-17T03:28:37.413Z,6.89
2022-11-17T03:31:09.481Z,6.91
2022-11-17T03:33:41.077Z,6.94
2022-11-17T03:36:15.978Z,6.97
2022-11-17T03:38:52.732Z,6.99
2022-11-17T03:41:23.572Z,7.01
2022-11-17T03:43:55.865Z,7.04
2022-11-17T03:46:26.765Z,7.08
2022-11-17T03:49:18.586Z,7.10
2022-11-17T03:51:47.009Z,7.13
2022-11-17T03:54:15.839Z,7.17
2022-11-17T03:57:16.015Z,7.21
2022-11-17T03:59:53.679Z,7.23
2022-11-17T04:02:24.350Z,7.24
2022-11-17T04:05:07.632Z,7.29
2022-11-17T04:07:44.346Z,7.33
2022-11-17T04:10:15.832Z,7.35
2022-11-17T04:13:02.421Z,7.36
2022-11-17T04:15:49.159Z,7.36
2022-11-17T04:18:17.310Z,7.34
2022-11-17T04:20:46.193Z,7.32
2022-11-17T04:23:15.331Z,7.31
2022-11-17T04:26:03.006Z,7.31
2022-11-17T04:28:39.553Z,7.29
2022-11-17T04:31:10.470Z,7.27
2022-11-17T04:33:41.889Z,7.24
2022-11-17T04:36:12.117Z,7.21
2022-11-17T04:38:45.059Z,7.18
2022-11-17T04:41:33.381Z,7.16
2022-11-17T04:44:02.107Z,7.08
2022-11-17T04:46:31.852Z,7.08
2022-11-17T04:49:00.822Z,7.09
2022-11-17T04:51:29.977Z,7.07
2022-11-17T04:53:58.311Z,7.10
2022-11-17T04:56:27.834Z,7.15
2022-11-17T04:58:55.935Z,7.26
2022-11-17T05:01:25.979Z,7.29
2022-11-17T05:03:59.956Z,7.33
2022-11-17T05:06:33.874Z,7.33
2022-11-17T05:09:04.686Z,7.37
2022-11-17T05:11:51.178Z,7.37
2022-11-17T05:14:21.383Z,7.42
2022-11-17T05:17:09.875Z,7.48
2022-11-17T05:19:41.881Z,7.52
2022-11-17T05:22:30.597Z,7.50
2022-11-17T05:24:59.286Z,7.50
2022-11-17T05:27:28.024Z,7.55
2022-11-17T05:29:56.025Z,7.59
2022-11-17T05:32:24.160Z,7.62
2022-11-17T05:34:52.209Z,7.64
2022-11-17T05:37:20.237Z,7.65
2022-11-17T05:39:48.288Z,7.66
2022-11-17T05:42:16.392Z,7.65
2022-11-17T05:44:44.490Z,7.65
2022-11-17T05:47:13.165Z,7.65
2022-11-17T05:49:41.246Z,7.65
2022-11-17T05:52:09.718Z,7.66
2022-11-17T05:54:37.843Z,7.67
2022-11-17T05:57:15.506Z,7.66
2022-11-17T05:59:57.398Z,7.66
2022-11-17T06:02:33.427Z,7.66
2022-11-17T06:05:03.396Z,7.61
2022-11-17T06:07:31.942Z,7.57
2022-11-17T06:10:00.752Z,7.54
2022-11-17T06:12:29.340Z,7.49
2022-11-17T06:14:57.810Z,7.46
2022-11-17T06:17:36.712Z,7.47
2022-11-17T06:20:10.758Z,7.47
2022-11-17T06:22:41.839Z,7.48
2022-11-17T06:25:13.960Z,7.47
2022-11-17T06:27:42.252Z,7.46
2022-11-17T06:30:11.051Z,7.51
2022-11-17T06:32:43.301Z,7.55
2022-11-17T06:35:14.587Z,7.53
2022-11-17T06:37:43.860Z,7.54
2022-11-17T06:40:13.687Z,7.45
2022-11-17T06:43:00.693Z,7.49
2022-11-17T06:45:29.797Z,7.51
2022-11-17T06:47:57.950Z,7.54
2022-11-17T06:50:26.655Z,7.56
2022-11-17T06:53:04.083Z,7.55
2022-11-17T06:55:32.950Z,7.58
2022-11-17T06:58:04.037Z,7.60
2022-11-17T07:00:33.828Z,7.65
2022-11-17T07:03:05.857Z,7.68
2022-11-17T07:05:35.765Z,7.70
2022-11-17T07:08:08.338Z,7.72
2022-11-17T07:10:37.134Z,7.73
2022-11-17T07:13:05.231Z,7.76
2022-11-17T07:15:33.445Z,7.80
2022-11-17T07:18:01.458Z,7.83
2022-11-17T07:20:30.431Z,7.87
2022-11-17T07:23:00.294Z,7.86
2022-11-17T07:25:28.630Z,7.81
2022-11-17T07:28:00.769Z,7.79
2022-11-17T07:30:29.561Z,7.81
2022-11-17T07:33:00.728Z,7.80
2022-11-17T07:35:29.515Z,7.79
2022-11-17T07:38:02.113Z,7.78
2022-11-17T07:40:32.466Z,7.76
2022-11-17T07:43:01.528Z,7.77
2022-11-17T07:45:32.341Z,7.78
2022-11-17T07:48:04.023Z,7.78
2022-11-17T07:50:33.244Z,7.80
2022-11-17T07:53:01.473Z,7.82
2022-11-17T07:55:29.982Z,7.84
2022-11-17T07:57:59.999Z,7.85
2022-11-17T08:00:30.908Z,7.85
2022-11-17T08:03:04.375Z,7.88
2022-11-17T08:05:43.675Z,7.92
2022-11-17T08:08:13.770Z,8.00
2022-11-17T08:10:43.416Z,8.05
2022-11-17T08:13:13.377Z,8.15
2022-11-17T08:15:41.923Z,8.24
2022-11-17T08:18:10.586Z,8.30
2022-11-17T08:20:39.087Z,8.39
2022-11-17T08:23:08.296Z,8.42
2022-11-17T08:25:36.564Z,8.53
2022-11-17T08:28:05.124Z,8.64
2022-11-17T08:30:36.545Z,8.71
2022-11-17T08:33:05.842Z,8.81
2022-11-17T08:35:37.622Z,8.90
2022-11-17T08:38:07.146Z,9.02
2022-11-17T08:40:35.549Z,9.16
2022-11-17T08:43:04.448Z,9.25
2022-11-17T08:45:32.877Z,9.28
2022-11-17T08:48:01.478Z,9.36
2022-11-17T08:50:29.922Z,9.46
2022-11-17T08:52:59.872Z,9.57
2022-11-17T08:55:28.351Z,9.69
2022-11-17T08:57:56.649Z,9.80
2022-11-17T09:00:25.281Z,9.93
2022-11-17T09:02:54.686Z,10.05
2022-11-17T09:05:25.433Z,10.13
2022-11-17T09:07:54.648Z,10.15
2022-11-17T09:10:23.598Z,10.22
2022-11-17T09:12:56.136Z,10.23
2022-11-17T09:15:24.940Z,10.21
2022-11-17T09:17:53.368Z,10.17
2022-11-17T09:20:22.201Z,10.16
2022-11-17T09:22:50.853Z,10.11
2022-11-17T09:25:19.346Z,10.10
2022-11-17T09:27:50.305Z,10.13
2022-11-17T09:30:22.369Z,10.12
2022-11-17T09:32:51.668Z,10.08
2022-11-17T09:35:20.225Z,10.05
2022-11-17T09:37:48.581Z,10.11
2022-11-17T09:40:20.049Z,10.12
2022-11-17T09:42:48.865Z,10.17
2022-11-17T09:45:23.367Z,10.22
2022-11-17T09:48:18.610Z,10.24
2022-11-17T09:50:50.879Z,10.30
2022-11-17T09:53:44.204Z,10.40
2022-11-17T09:56:15.390Z,10.51
2022-11-17T09:59:01.768Z,10.65
2022-11-17T10:01:31.141Z,10.76
2022-11-17T10:04:01.701Z,10.83
2022-11-17T10:06:32.086Z,10.95
2022-11-17T10:09:03.077Z,11.02
2022-11-17T10:11:38.431Z,11.06
2022-11-17T10:14:15.898Z,10.98
2022-11-17T10:16:50.215Z,10.96
2022-11-17T10:19:20.239Z,10.80
2022-11-17T10:22:08.737Z,10.78
2022-11-17T10:24:40.968Z,10.83
2022-11-17T10:27:35.635Z,10.81
2022-11-17T10:30:23.468Z,10.75
2022-11-17T10:33:00.401Z,10.69
2022-11-17T10:35:34.698Z,10.58
2022-11-17T10:38:06.067Z,10.48
2022-11-17T10:40:41.304Z,10.41
2022-11-17T10:43:12.332Z,10.29
2022-11-17T10:45:51.672Z,10.20
2022-11-17T10:48:41.086Z,10.12
2022-11-17T10:51:15.719Z,10.05
2022-11-17T10:53:46.688Z,10.00
2022-11-17T10:56:21.325Z,10.01
2022-11-17T10:58:58.012Z,9.99
2022-11-17T11:01:32.998Z,9.93
2022-11-17T11:04:02.700Z,9.93
2022-11-17T11:06:33.590Z,9.95
2022-11-17T11:09:11.475Z,9.90
2022-11-17T11:12:03.101Z,9.83
2022-11-17T11:14:44.065Z,9.75
2022-11-17T11:17:15.872Z,9.78
2022-11-17T11:19:53.140Z,9.70
2022-11-17T11:22:57.873Z,9.60
2022-11-17T11:25:43.323Z,9.56
2022-11-17T11:28:46.351Z,9.53
2022-11-17T11:31:35.301Z,9.46
2022-11-17T11:34:49.038Z,9.47
2022-11-17T11:37:25.588Z,9.47
2022-11-17T11:40:00.594Z,9.44
2022-11-17T11:42:28.830Z,9.49
2022-11-17T11:45:12.562Z,9.49
2022-11-17T11:48:02.862Z,9.42
2022-11-17T11:50:51.431Z,9.42
2022-11-17T11:53:35.623Z,9.45
2022-11-17T11:56:17.190Z,9.39
2022-11-17T11:58:59.944Z,9.42
2022-11-17T12:01:53.325Z,9.38
2022-11-17T12:04:46.723Z,9.41
2022-11-17T12:07:28.123Z,9.44
2022-11-17T12:10:04.198Z,9.50
2022-11-17T12:12:46.249Z,9.53
2022-11-17T12:15:20.841Z,9.46
2022-11-17T12:17:52.583Z,9.45
2022-11-17T12:20:39.528Z,9.43
2022-11-17T12:23:29.906Z,9.47
2022-11-17T12:26:00.869Z,9.42
2022-11-17T12:28:38.576Z,9.43
2022-11-17T12:31:11.397Z,9.47
2022-11-17T12:33:55.644Z,9.48
2022-11-17T12:36:29.795Z,9.49
2022-11-17T12:39:02.651Z,9.53
2022-11-17T12:41:49.349Z,9.51
2022-11-17T12:44:46.226Z,9.53
2022-11-17T12:47:24.263Z,9.47
2022-11-17T12:50:32.428Z,9.43
2022-11-17T12:53:15.683Z,9.46
2022-11-17T12:56:17.035Z,9.51
2022-11-17T12:58:49.059Z,9.55
2022-11-17T13:01:36.413Z,9.58
2022-11-17T13:04:17.146Z,9.61
2022-11-17T13:07:01.038Z,9.61
2022-11-17T13:09:33.936Z,9.55
2022-11-17T13:12:08.389Z,9.54
2022-11-17T13:14:53.166Z,9.53
2022-11-17T13:17:33.972Z,9.51
2022-11-17T13:20:29.084Z,9.49
2022-11-17T13:23:07.472Z,9.45
2022-11-17T13:25:36.207Z,9.45
2022-11-17T13:28:05.638Z,9.38
2022-11-17T13:30:34.771Z,9.31
2022-11-17T13:33:05.096Z,9.24
2022-11-17T13:35:37.450Z,9.30
2022-11-17T13:38:21.509Z,9.32
2022-11-17T13:40:54.028Z,9.30
2022-11-17T13:43:27.386Z,9.32
2022-11-17T13:45:56.681Z,9.31
2022-11-17T13:48:38.258Z,9.25
2022-11-17T13:51:29.657Z,9.24
2022-11-17T13:54:08.157Z,9.22
2022-11-17T13:56:50.750Z,9.23
2022-11-17T13:59:30.513Z,9.22
2022-11-17T14:02:17.395Z,9.24
2022-11-17T14:05:20.309Z,9.24
2022-11-17T14:07:53.935Z,9.25
2022-11-17T14:10:22.891Z,9.26
2022-11-17T14:12:53.095Z,9.30
2022-11-17T14:15:21.550Z,9.30
2022-11-17T14:17:58.585Z,9.28
2022-11-17T14:20:33.611Z,9.30
2022-11-17T14:23:10.058Z,9.32
2022-11-17T14:25:48.930Z,9.27
2022-11-17T14:28:21.181Z,9.28
2022-11-17T14:30:52.647Z,9.26
2022-11-17T14:33:22.040Z,9.21
2022-11-17T14:35:58.886Z,9.26
2022-11-17T14:38:27.402Z,9.25
2022-11-17T14:40:56.388Z,9.22
2022-11-17T14:43:25.394Z,9.25
2022-11-17T14:45:54.343Z,9.19
2022-11-17T14:48:23.373Z,9.20
2022-11-17T14:50:57.553Z,9.19
2022-11-17T14:53:27.378Z,9.14
2022-11-17T14:55:56.432Z,9.14
2022-11-17T14:58:25.330Z,9.08
2022-11-17T15:00:53.817Z,9.07
2022-11-17T15:03:23.561Z,9.07
2022-11-17T15:05:52.252Z,9.07
2022-11-17T15:08:20.826Z,9.04
2022-11-17T15:10:51.909Z,9.04
2022-11-17T15:13:21.207Z,9.02
2022-11-17T15:15:50.871Z,8.99
2022-11-17T15:18:19.935Z,8.97
2022-11-17T15:20:48.975Z,8.97
2022-11-17T15:23:18.148Z,8.92
2022-11-17T15:25:46.713Z,8.88
2022-11-17T15:28:22.368Z,8.84
2022-11-17T15:30:52.677Z,8.75
2022-11-17T15:33:21.457Z,8.77
2022-11-17T15:36:02.007Z,8.77
2022-11-17T15:38:31.902Z,8.80
2022-11-17T15:41:00.476Z,8.78
2022-11-17T15:43:30.569Z,8.76
2022-11-17T15:46:06.599Z,8.73
2022-11-17T15:48:45.271Z,8.72
2022-11-17T15:51:16.636Z,8.65
2022-11-17T15:53:47.377Z,8.62
2022-11-17T15:56:21.640Z,8.61
2022-11-17T15:59:01.880Z,8.63
2022-11-17T16:01:33.459Z,8.67
2022-11-17T16:04:03.741Z,8.70
2022-11-17T16:06:34.564Z,8.72
2022-11-17T16:09:05.334Z,8.72
2022-11-17T16:11:34.964Z,8.73
2022-11-17T16:14:05.124Z,8.75
2022-11-17T16:16:36.993Z,8.70
2022-11-17T16:19:06.560Z,8.64
2022-11-17T16:21:35.282Z,8.59
2022-11-17T16:24:03.682Z,8.56
2022-11-17T16:26:33.515Z,8.53
2022-11-17T16:29:07.442Z,8.56
2022-11-17T16:31:38.306Z,8.52
2022-11-17T16:34:13.099Z,8.50
2022-11-17T16:36:43.691Z,8.51
2022-11-17T16:39:17.627Z,8.58
2022-11-17T16:41:48.725Z,8.58
2022-11-17T16:44:19.570Z,8.61
2022-11-17T16:46:51.224Z,8.63
2022-11-17T16:49:20.816Z,8.61
2022-11-17T16:51:55.126Z,8.61
2022-11-17T16:54:23.627Z,8.61
2022-11-17T16:56:52.217Z,8.56
2022-11-17T16:59:21.129Z,8.52
2022-11-17T17:01:49.884Z,8.49
2022-11-17T17:04:18.559Z,8.48
2022-11-17T17:06:46.718Z,8.45
2022-11-17T17:09:16.030Z,8.42
2022-11-17T17:11:44.969Z,8.39
2022-11-17T17:14:15.486Z,8.38
2022-11-17T17:16:44.186Z,8.39
2022-11-17T17:19:14.455Z,8.34
2022-11-17T17:21:44.361Z,8.34
2022-11-17T17:24:13.413Z,8.37
2022-11-17T17:26:42.513Z,8.35
2022-11-17T17:29:13.816Z,8.36
2022-11-17T17:31:42.814Z,8.36
2022-11-17T17:34:13.504Z,8.36
2022-11-17T17:36:42.136Z,8.33
2022-11-17T17:39:18.300Z,8.38
2022-11-17T17:41:47.140Z,8.39
2022-11-17T17:44:18.872Z,8.38
2022-11-17T17:46:47.406Z,8.36
2022-11-17T17:49:16.426Z,8.36
2022-11-17T17:51:45.824Z,8.34
2022-11-17T17:54:20.030Z,8.34
2022-11-17T17:56:49.042Z,8.30
2022-11-17T17:59:18.304Z,8.26
2022-11-17T18:01:48.406Z,8.18
2022-11-17T18:04:17.419Z,8.15
2022-11-17T18:06:48.711Z,8.11
2022-11-17T18:09:20.717Z,8.10
2022-11-17T18:11:51.150Z,8.10
2022-11-17T18:14:25.037Z,8.08
2022-11-17T18:16:54.225Z,8.02
2022-11-17T18:19:23.983Z,7.95
2022-11-17T18:21:54.677Z,7.83
2022-11-17T18:24:22.983Z,7.69
2022-11-17T18:26:51.455Z,7.50
2022-11-17T18:29:20.328Z,7.35
2022-11-17T18:31:49.640Z,7.25
2022-11-17T18:34:21.781Z,7.25
2022-11-17T18:36:51.891Z,7.21
2022-11-17T18:39:21.091Z,7.20
2022-11-17T18:41:49.428Z,7.17
2022-11-17T18:44:20.317Z,7.13
2022-11-17T18:46:48.987Z,7.10
2022-11-17T18:49:19.424Z,7.07
2022-11-17T18:51:50.310Z,7.07
2022-11-17T18:54:18.686Z,7.05
2022-11-17T18:56:46.960Z,7.01
2022-11-17T18:59:15.687Z,6.98
2022-11-17T19:01:45.629Z,6.96
2022-11-17T19:04:14.752Z,6.95
2022-11-17T19:06:43.236Z,6.91
2022-11-17T19:09:11.902Z,6.85
2022-11-17T19:11:40.203Z,6.78
2022-11-17T19:14:08.335Z,6.73
2022-11-17T19:16:44.379Z,6.68
2022-11-17T19:19:15.745Z,6.64
2022-11-17T19:21:44.560Z,6.60
2022-11-17T19:24:14.182Z,6.60
2022-11-17T19:26:43.327Z,6.62
2022-11-17T19:29:17.157Z,6.64
2022-11-17T19:31:47.593Z,6.63
2022-11-17T19:34:16.517Z,6.65
2022-11-17T19:36:45.698Z,6.64
2022-11-17T19:39:14.885Z,6.64
2022-11-17T19:41:45.490Z,6.64
2022-11-17T19:44:14.064Z,6.68
2022-11-17T19:46:43.582Z,6.71
2022-11-17T19:49:12.669Z,6.74
2022-11-17T19:51:42.323Z,6.77
2022-11-17T19:54:13.430Z,6.77
2022-11-17T19:56:41.831Z,6.79
2022-11-17T19:59:15.658Z,6.79
2022-11-17T20:01:46.439Z,6.80
2022-11-17T20:04:14.995Z,6.76
2022-11-17T20:06:43.513Z,6.70
2022-11-17T20:09:15.064Z,6.65
2022-11-17T20:11:43.722Z,6.58
2022-11-17T20:14:12.296Z,6.52
2022-11-17T20:16:40.767Z,6.44
2022-11-17T20:19:09.391Z,6.34
2022-11-17T20:21:37.415Z,6.33
2022-11-17T20:24:06.401Z,6.28
2022-11-17T20:26:41.143Z,6.17
2022-11-17T20:29:09.521Z,6.14
2022-11-17T20:31:37.692Z,6.16
2022-11-17T20:34:06.178Z,6.18
2022-11-17T20:36:35.661Z,6.17
2022-11-17T20:39:06.200Z,6.19
2022-11-17T20:41:34.802Z,6.26
2022-11-17T20:44:03.532Z,6.31
2022-11-17T20:46:31.653Z,6.33
2022-11-17T20:48:59.655Z,6.35
2022-11-17T20:51:27.828Z,6.42
2022-11-17T20:53:55.992Z,6.52
2022-11-17T20:56:24.227Z,6.59
2022-11-17T20:58:52.320Z,6.62
2022-11-17T21:01:24.358Z,6.64
2022-11-17T21:03:52.697Z,6.70
2022-11-17T21:06:24.177Z,6.73
2022-11-17T21:08:53.020Z,6.75
2022-11-17T21:11:42.514Z,6.71
2022-11-17T21:14:12.912Z,6.67
2022-11-17T21:16:45.787Z,6.67
2022-11-17T21:19:14.534Z,6.66
2022-11-17T21:21:43.979Z,6.66
2022-11-17T21:24:12.519Z,6.66
2022-11-17T21:26:40.635Z,6.67
2022-11-17T21:29:08.834Z,6.66
2022-11-17T21:31:36.921Z,6.65
2022-11-17T21:34:06.889Z,6.65
2022-11-17T21:36:36.735Z,6.65
2022-11-17T21:39:05.286Z,6.67
2022-11-17T21:41:38.921Z,6.69
2022-11-17T21:44:07.488Z,6.70
2022-11-17T21:46:36.622Z,6.69
2022-11-17T21:49:05.314Z,6.70
2022-11-17T21:51:35.379Z,6.70
2022-11-17T21:54:06.712Z,6.69
2022-11-17T21:56:36.353Z,6.68
2022-11-17T21:59:10.057Z,6.67
2022-11-17T22:01:39.716Z,6.67
2022-11-17T22:04:08.966Z,6.70
2022-11-17T22:06:39.343Z,6.72
2022-11-17T22:09:07.990Z,6.74
2022-11-17T22:11:36.671Z,6.76
2022-11-17T22:14:14.968Z,6.76
2022-11-17T22:16:45.721Z,6.75
2022-11-17T22:19:15.991Z,6.73
2022-11-17T22:21:45.886Z,6.68
2022-11-17T22:24:14.185Z,6.68
2022-11-17T22:26:44.392Z,6.69
2022-11-17T22:29:19.340Z,6.72
2022-11-17T22:31:51.562Z,6.75
2022-11-17T22:34:19.597Z,6.78
2022-11-17T22:36:47.539Z,6.82
2022-11-17T22:39:16.514Z,6.88
2022-11-17T22:41:44.841Z,6.90
2022-11-17T22:44:14.670Z,6.92
2022-11-17T22:46:45.856Z,6.92
2022-11-17T22:49:14.059Z,6.91
2022-11-17T22:52:00.885Z,6.90
2022-11-17T22:54:29.430Z,6.89
2022-11-17T22:56:58.415Z,6.89
2022-11-17T22:59:27.874Z,6.88
2022-11-17T23:01:56.512Z,6.85
2022-11-17T23:04:24.778Z,6.82
2022-11-17T23:06:53.289Z,6.79
2022-11-17T23:09:21.572Z,6.76
2022-11-17T23:11:49.691Z,6.76
2022-11-17T23:14:19.098Z,6.76
2022-11-17T23:16:46.978Z,6.74
2022-11-17T23:19:14.936Z,6.73
2022-11-17T23:21:42.992Z,6.71
2022-11-17T23:24:13.192Z,6.72
2022-11-17T23:26:42.707Z,6.76
2022-11-17T23:29:10.904Z,6.78
2022-11-17T23:31:39.287Z,6.74
2022-11-17T23:34:10.940Z,6.71
2022-11-17T23:36:39.253Z,6.75
2022-11-17T23:39:08.522Z,6.79
2022-11-17T23:41:37.300Z,6.78
2022-11-17T23:44:05.695Z,6.77
2022-11-17T23:46:34.051Z,6.78
2022-11-17T23:49:02.624Z,6.80
2022-11-17T23:51:31.012Z,6.86
2022-11-17T23:54:01.051Z,6.87
2022-11-17T23:56:33.826Z,6.88
2022-11-17T23:59:02.202Z,6.87
